createdAt,value
2022-09-12T00:01:13.617Z,69.80
2022-09-12T00:03:41.252Z,69.70
2022-09-12T00:06:11.869Z,70.10
2022-09-12T00:08:39.599Z,70.50
2022-09-12T00:11:09.628Z,70.70
2022-09-12T00:13:41.665Z,71.00
2022-09-12T00:16:17.171Z,71.20
2022-09-12T00:18:46.527Z,71.30
2022-09-12T00:21:14.908Z,71.40
2022-09-12T00:23:42.430Z,71.40
2022-09-12T00:26:09.938Z,71.40
2022-09-12T00:28:38.849Z,71.60
2022-09-12T00:31:12.224Z,71.50
2022-09-12T00:33:40.359Z,71.80
2022-09-12T00:36:14.539Z,71.60
2022-09-12T00:38:43.193Z,71.70
2022-09-12T00:41:32.179Z,71.60
2022-09-12T00:44:12.859Z,71.90
2022-09-12T00:46:50.878Z,72.00
2022-09-12T00:49:39.111Z,72.20
2022-09-12T00:52:08.999Z,72.10
2022-09-12T00:54:55.928Z,72.30
2022-09-12T00:57:28.230Z,72.50
2022-09-12T01:00:20.831Z,72.70
2022-09-12T01:02:53.368Z,72.90
2022-09-12T01:05:22.638Z,72.90
2022-09-12T01:07:52.008Z,73.10
2022-09-12T01:10:20.618Z,73.20
2022-09-12T01:12:48.862Z,73.30
2022-09-12T01:15:16.389Z,73.20
2022-09-12T01:17:57.989Z,73.10
2022-09-12T01:20:51.758Z,73.10
2022-09-12T01:24:09.709Z,73.10
2022-09-12T01:27:07.959Z,73.30
2022-09-12T01:30:04.844Z,73.30
2022-09-12T01:33:04.459Z,73.50
2022-09-12T01:35:35.498Z,73.50
2022-09-12T01:38:05.899Z,73.50
2022-09-12T01:41:02.159Z,73.70
2022-09-12T01:44:05.020Z,73.70
2022-09-12T01:46:41.389Z,73.60
2022-09-12T01:49:20.128Z,73.80
2022-09-12T01:52:18.929Z,74.10
2022-09-12T01:54:59.939Z,74.40
2022-09-12T01:57:43.469Z,74.30
2022-09-12T02:00:12.410Z,74.50
2022-09-12T02:03:15.101Z,74.80
2022-09-12T02:05:54.270Z,75.00
2022-09-12T02:08:31.719Z,75.00
2022-09-12T02:11:06.890Z,75.20
2022-09-12T02:13:48.089Z,75.20
2022-09-12T02:16:20.772Z,75.10
2022-09-12T02:18:53.769Z,75.30
2022-09-12T02:21:23.869Z,75.20
2022-09-12T02:24:02.560Z,75.10
2022-09-12T02:26:35.689Z,75.00
2022-09-12T02:29:04.758Z,75.10
2022-09-12T02:31:32.118Z,75.30
2022-09-12T02:34:20.349Z,75.30
2022-09-12T02:37:06.030Z,75.40
2022-09-12T02:39:34.019Z,75.40
2022-09-12T02:42:02.429Z,75.30
2022-09-12T02:44:32.928Z,75.50
2022-09-12T02:47:09.060Z,75.50
2022-09-12T02:49:36.518Z,75.50
2022-09-12T02:52:04.642Z,75.50
2022-09-12T02:54:32.649Z,75.70
2022-09-12T02:57:00.019Z,75.70
2022-09-12T02:59:27.689Z,75.50
2022-09-12T03:02:06.159Z,75.70
2022-09-12T03:05:07.612Z,75.60
2022-09-12T03:07:51.058Z,75.60
2022-09-12T03:10:37.119Z,75.60
2022-09-12T03:13:24.879Z,75.70
2022-09-12T03:16:08.853Z,75.70
2022-09-12T03:19:03.973Z,75.80
2022-09-12T03:21:43.130Z,75.80
2022-09-12T03:24:21.761Z,76.50
2022-09-12T03:26:55.439Z,75.60
2022-09-12T03:29:24.959Z,75.50
2022-09-12T03:31:55.768Z,75.40
2022-09-12T03:34:24.749Z,75.40
2022-09-12T03:36:52.989Z,75.40
2022-09-12T03:39:21.279Z,75.20
2022-09-12T03:41:48.679Z,75.20
2022-09-12T03:44:16.259Z,75.10
2022-09-12T03:46:43.719Z,75.10
2022-09-12T03:49:11.428Z,75.00
2022-09-12T03:51:40.093Z,75.00
2022-09-12T03:54:07.748Z,74.90
2022-09-12T03:56:36.249Z,75.00
2022-09-12T03:59:07.078Z,75.10
2022-09-12T04:01:34.811Z,75.20
2022-09-12T04:04:02.395Z,75.30
2022-09-12T04:06:30.115Z,75.30
2022-09-12T04:08:57.504Z,75.40
2022-09-12T04:11:25.063Z,75.40
2022-09-12T04:13:52.776Z,75.50
2022-09-12T04:16:20.756Z,75.80
2022-09-12T04:18:48.377Z,75.80
2022-09-12T04:21:19.584Z,75.70
2022-09-12T04:23:47.015Z,75.80
2022-09-12T04:26:14.865Z,76.10
2022-09-12T04:28:42.735Z,76.20
2022-09-12T04:31:20.285Z,76.40
2022-09-12T04:33:48.024Z,76.10
2022-09-12T04:36:17.664Z,76.40
2022-09-12T04:38:46.697Z,76.50
2022-09-12T04:41:16.511Z,76.60
2022-09-12T04:43:46.725Z,76.60
2022-09-12T04:46:16.294Z,76.70
2022-09-12T04:48:44.414Z,76.80
2022-09-12T04:51:17.882Z,76.90
2022-09-12T04:53:50.045Z,76.90
2022-09-12T04:56:17.946Z,77.00
2022-09-12T04:58:45.285Z,77.10
2022-09-12T05:01:18.441Z,77.00
2022-09-12T05:03:47.298Z,77.20
2022-09-12T05:06:23.786Z,77.60
2022-09-12T05:08:52.936Z,77.60
2022-09-12T05:11:25.434Z,77.70
2022-09-12T05:13:54.411Z,77.90
2022-09-12T05:16:22.876Z,77.90
2022-09-12T05:18:50.519Z,77.90
2022-09-12T05:21:21.399Z,77.90
2022-09-12T05:23:56.819Z,77.90
2022-09-12T05:26:24.597Z,77.80
2022-09-12T05:28:53.166Z,77.90
2022-09-12T05:31:29.455Z,77.60
2022-09-12T05:33:57.905Z,77.50
2022-09-12T05:36:30.545Z,77.50
2022-09-12T05:38:59.828Z,77.50
2022-09-12T05:41:34.065Z,77.40
2022-09-12T05:44:04.066Z,77.50
2022-09-12T05:46:36.146Z,77.70
2022-09-12T05:49:05.207Z,77.50
2022-09-12T05:51:35.485Z,77.40
2022-09-12T05:54:04.495Z,77.70
2022-09-12T05:56:34.426Z,77.70
2022-09-12T05:59:04.206Z,77.50
2022-09-12T06:01:33.830Z,77.70
2022-09-12T06:04:04.176Z,77.40
2022-09-12T06:06:32.837Z,78.50
2022-09-12T06:09:02.136Z,77.40
2022-09-12T06:11:33.480Z,77.50
2022-09-12T06:14:01.707Z,77.50
2022-09-12T06:16:33.650Z,77.50
2022-09-12T06:19:22.575Z,77.40
2022-09-12T06:21:51.826Z,78.10
2022-09-12T06:24:20.306Z,77.10
2022-09-12T06:26:52.901Z,76.90
2022-09-12T06:29:20.246Z,77.00
2022-09-12T06:31:47.585Z,76.70
2022-09-12T06:34:16.697Z,76.80
2022-09-12T06:36:48.945Z,76.70
2022-09-12T06:39:18.610Z,76.50
2022-09-12T06:41:46.475Z,76.50
2022-09-12T06:44:22.580Z,76.30
2022-09-12T06:47:08.985Z,76.20
2022-09-12T06:49:36.656Z,76.40
2022-09-12T06:52:04.053Z,76.10
2022-09-12T06:54:31.357Z,75.70
2022-09-12T06:56:58.794Z,75.60
2022-09-12T06:59:26.253Z,75.30
2022-09-12T07:01:53.575Z,75.20
2022-09-12T07:04:21.005Z,74.80
2022-09-12T07:06:48.305Z,74.60
2022-09-12T07:09:18.426Z,74.70
2022-09-12T07:11:46.611Z,74.70
2022-09-12T07:14:15.196Z,74.50
2022-09-12T07:16:42.834Z,74.40
2022-09-12T07:19:10.797Z,74.30
2022-09-12T07:21:40.627Z,73.70
2022-09-12T07:24:11.946Z,73.90
2022-09-12T07:26:40.785Z,73.50
2022-09-12T07:29:35.478Z,74.20
2022-09-12T07:32:02.015Z,73.40
2022-09-12T07:34:29.338Z,74.10
2022-09-12T07:36:56.627Z,73.00
2022-09-12T07:39:23.906Z,72.60
2022-09-12T07:41:51.605Z,72.60
2022-09-12T07:44:18.865Z,72.50
2022-09-12T07:46:46.395Z,72.50
2022-09-12T07:49:13.795Z,72.90
2022-09-12T07:51:41.355Z,72.20
2022-09-12T07:54:09.576Z,71.60
2022-09-12T07:56:39.354Z,71.20
2022-09-12T07:59:07.836Z,70.80
2022-09-12T08:01:35.541Z,70.10
2022-09-12T08:04:05.061Z,69.90
2022-09-12T08:06:36.169Z,69.20
2022-09-12T08:09:05.096Z,68.80
2022-09-12T08:11:32.625Z,68.50
2022-09-12T08:14:01.966Z,68.50
2022-09-12T08:16:33.226Z,67.60
2022-09-12T08:19:02.192Z,67.50
2022-09-12T08:21:33.736Z,66.40
2022-09-12T08:24:04.142Z,66.70
2022-09-12T08:26:32.909Z,65.70
2022-09-12T08:29:00.499Z,65.00
2022-09-12T08:31:28.590Z,64.40
2022-09-12T08:33:57.484Z,64.10
2022-09-12T08:36:27.909Z,64.10
2022-09-12T08:39:00.029Z,62.80
2022-09-12T08:41:38.265Z,62.70
2022-09-12T08:44:09.358Z,61.70
2022-09-12T08:46:48.750Z,61.50
2022-09-12T08:49:45.996Z,61.10
2022-09-12T08:52:29.874Z,60.90
2022-09-12T08:54:57.676Z,60.40
2022-09-12T08:57:24.975Z,59.30
2022-09-12T08:59:53.376Z,58.40
2022-09-12T09:02:42.666Z,58.50
2022-09-12T09:05:23.545Z,58.30
2022-09-12T09:08:27.056Z,57.60
2022-09-12T09:11:37.747Z,57.70
2022-09-12T09:14:32.476Z,56.90
2022-09-12T09:17:01.029Z,56.70
2022-09-12T09:19:38.177Z,56.10
2022-09-12T09:22:13.191Z,56.20
2022-09-12T09:24:53.535Z,56.40
2022-09-12T09:27:45.917Z,56.00
2022-09-12T09:30:19.212Z,55.50
2022-09-12T09:32:58.515Z,55.10
2022-09-12T09:35:44.208Z,54.80
2022-09-12T09:38:37.807Z,54.90
2022-09-12T09:41:33.218Z,53.40
2022-09-12T09:44:01.207Z,53.90
2022-09-12T09:46:28.761Z,53.40
2022-09-12T09:48:59.495Z,53.70
2022-09-12T09:51:32.563Z,53.40
2022-09-12T09:54:13.873Z,53.00
2022-09-12T09:56:45.285Z,52.70
2022-09-12T09:59:34.418Z,52.70
2022-09-12T10:02:24.414Z,52.20
2022-09-12T10:04:57.817Z,51.60
2022-09-12T10:07:27.445Z,51.80
2022-09-12T10:10:14.466Z,51.90
2022-09-12T10:12:42.205Z,51.60
2022-09-12T10:15:26.701Z,51.40
2022-09-12T10:17:55.984Z,50.70
2022-09-12T10:20:37.517Z,50.70
2022-09-12T10:23:37.904Z,51.00
2022-09-12T10:26:19.247Z,50.50
2022-09-12T10:28:56.165Z,50.50
2022-09-12T10:31:39.285Z,50.40
2022-09-12T10:34:06.865Z,49.80
2022-09-12T10:36:39.806Z,49.50
2022-09-12T10:39:16.299Z,50.00
2022-09-12T10:41:43.670Z,50.00
2022-09-12T10:44:28.027Z,49.20
2022-09-12T10:46:56.085Z,49.30
2022-09-12T10:49:25.080Z,49.30
2022-09-12T10:51:54.551Z,48.80
2022-09-12T10:54:25.096Z,48.30
2022-09-12T10:56:58.370Z,48.10
2022-09-12T10:59:42.850Z,48.20
2022-09-12T11:02:33.420Z,47.70
2022-09-12T11:05:19.490Z,47.90
2022-09-12T11:08:03.924Z,47.60
2022-09-12T11:10:37.310Z,47.20
2022-09-12T11:13:24.004Z,48.20
2022-09-12T11:16:21.929Z,47.30
2022-09-12T11:19:19.999Z,47.90
2022-09-12T11:22:00.401Z,47.80
2022-09-12T11:24:36.400Z,48.10
2022-09-12T11:27:36.052Z,48.10
2022-09-12T11:30:10.296Z,48.30
2022-09-12T11:33:01.621Z,48.80
2022-09-12T11:35:31.873Z,48.80
2022-09-12T11:38:13.900Z,48.50
2022-09-12T11:40:52.363Z,47.80
2022-09-12T11:43:25.520Z,47.90
2022-09-12T11:45:53.775Z,47.60
2022-09-12T11:48:46.947Z,47.70
2022-09-12T11:51:38.710Z,47.60
2022-09-12T11:54:23.430Z,47.30
2022-09-12T11:57:02.283Z,47.30
2022-09-12T11:59:39.432Z,47.20
2022-09-12T12:02:15.299Z,47.70
2022-09-12T12:05:15.470Z,48.30
2022-09-12T12:07:54.583Z,48.00
2022-09-12T12:10:43.070Z,47.60
2022-09-12T12:13:21.990Z,47.50
2022-09-12T12:15:53.721Z,47.00
2022-09-12T12:18:29.040Z,47.00
2022-09-12T12:20:57.388Z,46.80
2022-09-12T12:23:34.580Z,46.90
2022-09-12T12:26:04.671Z,46.90
2022-09-12T12:28:50.530Z,47.40
2022-09-12T12:31:18.634Z,47.70
2022-09-12T12:33:45.774Z,47.90
2022-09-12T12:36:39.761Z,48.10
2022-09-12T12:39:31.832Z,48.00
2022-09-12T12:42:00.281Z,48.40
2022-09-12T12:44:45.964Z,48.70
2022-09-12T12:47:19.107Z,48.90
2022-09-12T12:50:00.470Z,48.20
2022-09-12T12:52:32.680Z,48.60
2022-09-12T12:55:04.890Z,48.60
2022-09-12T12:58:00.038Z,48.60
2022-09-12T13:00:32.241Z,48.60
2022-09-12T13:02:59.900Z,48.60
2022-09-12T13:05:30.845Z,48.90
2022-09-12T13:08:28.755Z,49.10
2022-09-12T13:11:07.502Z,49.00
2022-09-12T13:13:57.252Z,49.50
2022-09-12T13:16:37.200Z,49.60
2022-09-12T13:19:08.170Z,49.40
2022-09-12T13:21:35.572Z,49.40
2022-09-12T13:24:16.020Z,49.50
2022-09-12T13:26:47.071Z,49.70
2022-09-12T13:29:22.623Z,49.80
2022-09-12T13:31:59.360Z,49.70
2022-09-12T13:34:41.892Z,49.50
2022-09-12T13:37:24.553Z,49.70
2022-09-12T13:40:15.873Z,49.90
2022-09-12T13:42:48.872Z,50.10
2022-09-12T13:45:20.440Z,50.20
2022-09-12T13:47:54.291Z,50.20
2022-09-12T13:50:27.860Z,50.80
2022-09-12T13:53:03.754Z,50.70
2022-09-12T13:55:36.801Z,50.50
2022-09-12T13:58:06.571Z,50.30
2022-09-12T14:00:35.115Z,50.10
2022-09-12T14:03:32.000Z,50.00
2022-09-12T14:05:59.730Z,50.10
2022-09-12T14:08:27.320Z,50.00
2022-09-12T14:10:54.890Z,49.80
2022-09-12T14:13:26.460Z,49.50
2022-09-12T14:15:56.234Z,49.60
2022-09-12T14:18:28.720Z,49.60
2022-09-12T14:20:57.710Z,49.60
2022-09-12T15:24:50.660Z,48.00
2022-09-12T15:27:17.833Z,48.00
2022-09-12T15:29:44.971Z,47.80
2022-09-12T15:32:22.631Z,48.00
2022-09-12T15:34:49.900Z,48.10
2022-09-12T15:37:18.251Z,47.60
2022-09-12T15:39:46.858Z,47.50
2022-09-12T15:42:15.510Z,47.60
2022-09-12T15:44:43.236Z,47.50
2022-09-12T15:47:14.030Z,47.40
2022-09-12T15:49:41.411Z,47.10
2022-09-12T15:52:15.050Z,47.10
2022-09-12T15:54:43.400Z,47.00
2022-09-12T15:57:10.590Z,47.50
2022-09-12T15:59:37.810Z,47.70
2022-09-12T16:02:05.102Z,47.50
2022-09-12T16:04:32.350Z,47.70
2022-09-12T16:06:59.562Z,48.00
2022-09-12T16:09:26.770Z,48.10
2022-09-12T16:11:53.931Z,48.30
2022-09-12T16:14:21.458Z,48.20
2022-09-12T16:16:56.201Z,48.00
2022-09-12T16:19:23.500Z,48.00
2022-09-12T16:21:50.850Z,48.10
2022-09-12T16:24:18.040Z,48.30
2022-09-12T16:26:45.351Z,48.40
2022-09-12T16:29:14.012Z,48.60
2022-09-12T16:31:41.431Z,48.80
2022-09-12T16:34:08.730Z,48.70
2022-09-12T16:36:35.849Z,48.40
2022-09-12T16:39:03.269Z,48.10
2022-09-12T16:41:30.519Z,48.00
2022-09-12T16:43:57.780Z,48.20
2022-09-12T16:46:30.922Z,48.10
2022-09-12T16:48:59.130Z,48.10
2022-09-12T16:51:36.092Z,48.10
2022-09-12T16:54:04.186Z,48.20
2022-09-12T16:56:31.501Z,48.10
2022-09-12T16:58:58.808Z,48.20
2022-09-12T17:01:26.921Z,48.30
2022-09-12T17:03:56.803Z,48.30
2022-09-12T17:06:25.569Z,48.10
2022-09-12T17:08:54.491Z,48.30
2022-09-12T17:11:27.350Z,48.40
2022-09-12T17:14:11.752Z,48.50
2022-09-12T17:16:50.741Z,48.60
2022-09-12T17:19:26.713Z,48.60
2022-09-12T17:21:54.626Z,48.70
2022-09-12T17:24:23.209Z,49.00
2022-09-12T17:26:51.760Z,49.10
2022-09-12T17:29:19.150Z,49.40
2022-09-12T17:31:46.711Z,49.70
2022-09-12T17:34:17.909Z,50.10
2022-09-12T17:36:46.090Z,50.90
2022-09-12T17:39:14.351Z,51.40
2022-09-12T17:41:42.927Z,51.30
2022-09-12T17:44:15.326Z,51.60
2022-09-12T17:46:43.674Z,51.80
2022-09-12T17:49:16.058Z,52.60
2022-09-12T17:51:44.452Z,53.40
2022-09-12T17:54:15.830Z,53.90
2022-09-12T17:56:44.530Z,54.00
2022-09-12T17:59:16.210Z,54.50
2022-09-12T18:02:02.300Z,54.60
2022-09-12T18:04:29.989Z,54.90
2022-09-12T18:06:57.970Z,55.10
2022-09-12T18:09:25.410Z,54.80
2022-09-12T18:11:53.333Z,55.20
2022-09-12T18:14:21.012Z,55.10
2022-09-12T18:16:48.750Z,55.40
2022-09-12T18:19:17.001Z,55.70
2022-09-12T18:21:44.290Z,55.50
2022-09-12T18:24:12.359Z,56.10
2022-09-12T18:26:39.810Z,56.30
2022-09-12T18:29:07.931Z,56.20
2022-09-12T18:31:35.567Z,56.50
2022-09-12T18:34:03.010Z,56.00
2022-09-12T18:36:31.005Z,56.40
2022-09-12T18:41:41.089Z,57.30
2022-09-12T18:44:10.370Z,57.20
2022-09-12T18:46:38.034Z,56.90
2022-09-12T18:49:05.729Z,56.70
2022-09-12T18:51:36.115Z,57.20
2022-09-12T18:54:09.093Z,57.10
2022-09-12T18:59:20.100Z,57.20
2022-09-12T19:01:47.661Z,57.20
2022-09-12T19:04:16.485Z,57.30
2022-09-12T19:06:46.601Z,57.40
2022-09-12T19:09:16.452Z,57.30
2022-09-12T19:11:49.790Z,57.50
2022-09-12T19:14:19.973Z,57.60
2022-09-12T19:16:47.211Z,57.60
2022-09-12T19:19:14.480Z,57.70
2022-09-12T19:21:42.324Z,57.60
2022-09-12T19:24:10.476Z,57.80
2022-09-12T19:26:39.152Z,58.00
2022-09-12T19:29:07.300Z,58.30
2022-09-12T19:31:35.186Z,57.90
2022-09-12T19:34:04.761Z,58.30
2022-09-12T19:36:48.123Z,58.50
2022-09-12T19:39:19.756Z,58.90
2022-09-12T19:41:48.193Z,58.90
2022-09-12T19:44:15.596Z,59.10
2022-09-12T19:46:43.043Z,59.20
2022-09-12T19:51:53.090Z,59.40
2022-09-12T19:54:20.430Z,59.70
2022-09-12T19:56:47.830Z,59.80
2022-09-12T19:59:15.070Z,60.40
2022-09-12T20:01:42.500Z,61.00
2022-09-12T20:04:10.010Z,61.00
2022-09-12T20:06:37.390Z,61.50
2022-09-12T20:09:05.113Z,61.40
2022-09-12T20:11:32.430Z,61.70
2022-09-12T20:13:59.770Z,61.70
2022-09-12T20:16:29.807Z,62.30
2022-09-12T20:19:03.947Z,62.20
2022-09-12T20:21:33.132Z,62.20
2022-09-12T20:24:20.571Z,62.20
2022-09-12T20:26:47.980Z,61.50
2022-09-12T20:29:15.310Z,61.50
2022-09-12T20:31:43.418Z,61.80
2022-09-12T20:34:20.431Z,62.00
2022-09-12T20:36:48.380Z,62.40
2022-09-12T20:39:18.363Z,62.40
2022-09-12T20:41:46.531Z,62.80
2022-09-12T20:44:13.909Z,63.00
2022-09-12T20:46:41.968Z,63.60
2022-09-12T20:49:09.291Z,63.90
2022-09-12T20:51:36.850Z,64.20
2022-09-12T20:54:06.071Z,64.20
2022-09-12T20:56:36.630Z,65.00
2022-09-12T20:59:05.083Z,65.10
2022-09-12T21:01:33.111Z,65.40
2022-09-12T21:04:01.411Z,65.60
2022-09-12T21:06:29.010Z,65.80
2022-09-12T21:09:00.678Z,66.30
2022-09-12T21:11:28.862Z,66.70
2022-09-12T21:13:56.390Z,67.20
2022-09-12T21:16:24.238Z,67.40
2022-09-12T21:18:59.728Z,67.70
2022-09-12T21:21:27.151Z,67.30
2022-09-12T21:23:58.531Z,67.40
2022-09-12T21:26:26.130Z,67.60
2022-09-12T21:28:53.361Z,67.40
2022-09-12T21:31:21.217Z,67.90
2022-09-12T21:33:49.405Z,67.80
2022-09-12T21:36:16.840Z,68.50
2022-09-12T21:38:44.150Z,68.70
2022-09-12T21:41:14.030Z,68.80
2022-09-12T21:43:42.065Z,69.00
2022-09-12T21:46:10.200Z,68.90
2022-09-12T21:48:37.790Z,68.90
2022-09-12T21:51:05.355Z,69.50
2022-09-12T21:53:32.610Z,69.50
2022-09-12T21:56:05.092Z,69.10
2022-09-12T22:01:13.725Z,68.80
2022-09-12T22:03:43.212Z,69.10
2022-09-12T22:06:10.543Z,69.30
2022-09-12T22:08:39.084Z,70.00
2022-09-12T22:11:09.735Z,68.90
2022-09-12T22:13:43.564Z,69.20
2022-09-12T22:16:11.382Z,69.10
2022-09-12T22:18:38.725Z,69.30
2022-09-12T22:21:17.760Z,69.30
2022-09-12T22:24:03.643Z,69.50
2022-09-12T22:26:35.185Z,69.40
2022-09-12T22:29:02.543Z,69.30
2022-09-12T22:31:29.825Z,69.30
2022-09-12T22:33:59.847Z,69.20
2022-09-12T22:36:30.908Z,69.20
2022-09-12T22:38:59.566Z,69.40
2022-09-12T22:41:26.903Z,69.80
2022-09-12T22:43:54.175Z,70.40
2022-09-12T22:46:21.382Z,70.90
2022-09-12T22:48:48.624Z,71.70
2022-09-12T22:51:15.845Z,72.20
2022-09-12T22:53:43.493Z,72.20
2022-09-12T22:56:10.751Z,72.30
2022-09-12T22:58:38.485Z,72.00
2022-09-12T23:01:06.971Z,73.20
2022-09-12T23:03:35.359Z,74.50
2022-09-12T23:06:03.527Z,75.70
2022-09-12T23:08:30.754Z,76.40
2022-09-12T23:11:06.203Z,77.00
2022-09-12T23:13:34.023Z,78.30
2022-09-12T23:16:03.684Z,79.00
2022-09-12T23:18:31.013Z,79.90
2022-09-12T23:21:06.215Z,80.50
2022-09-12T23:23:33.683Z,81.40
2022-09-12T23:26:07.993Z,82.00
2022-09-12T23:28:35.994Z,82.80
2022-09-12T23:31:03.584Z,84.00
2022-09-12T23:33:32.024Z,85.10
2022-09-12T23:36:05.223Z,86.90
2022-09-12T23:38:33.714Z,88.30
2022-09-12T23:41:01.733Z,89.00
2022-09-12T23:43:29.353Z,90.30
2022-09-12T23:45:57.057Z,90.80
2022-09-12T23:48:24.565Z,91.20
2022-09-12T23:50:51.954Z,91.60
2022-09-12T23:53:20.563Z,92.10
2022-09-12T23:55:48.103Z,92.70
2022-09-12T23:58:15.821Z,93.00
